Flight Track Log - Related Links

Times and Time Zones

All times are in EDT time to prevent confusion due to time zone crossing. See the ROX102 flight status page for this flight to view local times or setup timezone preferences in your user account.

Time Position Orientation Groundspeed Altitude Reporting Facility
EDT Latitude Longitude Course Direction KTS MPH feet Rate Location/Type
Wed 07:21:12 AM 18.4333 -65.9667 90° East 110 127 900  Level San Juan Center
Wed 07:22:12 AM 18.4333 -65.9333 90° East 130 150 2,000 1,100 Climbing San Juan Center
Wed 07:23:12 AM 18.4500 -65.9000 62° Northeast 120 138 3,100 1,041 Climbing San Juan Center
Wed 07:24:13 AM 18.4500 -65.8667 90° East 120 138 4,100 942 Climbing San Juan Center
Wed 07:25:13 AM 18.4667 -65.8333 62° Northeast 130 150 5,000 450 Climbing San Juan Center
Wed 07:26:13 AM 18.4500 -65.8000 118° Southeast 160 184 5,000  Level San Juan Center
Wed 07:27:13 AM 18.4500 -65.7667 90° East 140 161 5,000  Level San Juan Center
Wed 07:28:14 AM 18.4333 -65.7167 109° East 160 184 5,000  Level San Juan Center
Wed 07:29:14 AM 18.4167 -65.6667 109° East 160 184 5,000  Level San Juan Center
Wed 07:30:14 AM 18.4167 -65.6333 90° East 160 184 5,000  Level San Juan Center
Wed 07:31:15 AM 18.4000 -65.5833 109° East 160 184 5,000  Level San Juan Center
Wed 07:32:15 AM 18.4000 -65.5333 90° East 160 184 5,000  Level San Juan Center
Wed 07:33:15 AM 18.3833 -65.5000 118° Southeast 160 184 5,000 -50 Level San Juan Center
Wed 07:34:16 AM 18.3833 -65.4500 90° East 150 173 4,900 -397 Descending San Juan Center
Wed 07:35:16 AM 18.3667 -65.4000 109° East 170 196 4,200 -700 Descending San Juan Center
Wed 07:36:16 AM 18.3500 -65.3500 109° East 160 184 3,500 -595 Descending San Juan Center
Wed 07:37:17 AM 18.3500 -65.3000 90° East 150 173 3,000 -248 Descending San Juan Center
Wed 07:38:17 AM 18.3333 -65.2667 118° Southeast 140 161 3,000  Level San Juan Center
Wed 07:39:17 AM 18.3167 -65.2333 118° Southeast 150 173 3,000 -248 Level San Juan Center
Wed 07:40:18 AM 18.3167 -65.1833 90° East 160 184 2,500 -347 Descending San Juan Center
Wed 07:41:18 AM 18.3167 -65.1500 90° East 150 173 2,300 -200 Descending San Juan Center
Wed 07:42:18 AM 18.3167 -65.1000 90° East 130 150 2,100 -248 Descending San Juan Center
Wed 07:43:19 AM 18.3167 -65.0667 90° East 100 115 1,800 -397 Descending San Juan Center
Wed 07:44:19 AM 18.3333 -65.0333 62° Northeast 110 127 1,300 -600 Descending San Juan Center
Wed 07:45:19 AM 18.3333 -65.0000 90° East 120 138 600 -700 Descending San Juan Center

Login

Don't have an account? Register now (free) for customized features, flight alerts, and more!